createdAt,value
2018-11-11T00:01:58.326Z,9.91
2018-11-11T00:04:32.134Z,9.97
2018-11-11T00:07:02.129Z,9.92
2018-11-11T00:09:34.333Z,9.94
2018-11-11T00:12:07.328Z,9.98
2018-11-11T00:14:37.238Z,9.98
2018-11-11T00:17:10.414Z,9.96
2018-11-11T00:19:40.440Z,9.91
2018-11-11T00:22:11.352Z,9.87
2018-11-11T00:24:40.924Z,9.93
2018-11-11T00:27:12.235Z,9.93
2018-11-11T00:29:44.482Z,9.89
2018-11-11T00:32:16.209Z,9.85
2018-11-11T00:34:46.651Z,9.83
2018-11-11T00:37:16.168Z,9.84
2018-11-11T00:39:46.399Z,9.83
2018-11-11T00:42:18.010Z,9.94
2018-11-11T00:44:48.402Z,9.91
2018-11-11T00:47:18.353Z,9.85
2018-11-11T00:49:49.596Z,9.86
2018-11-11T00:52:19.263Z,9.95
2018-11-11T00:54:50.439Z,9.88
2018-11-11T00:57:20.371Z,9.82
2018-11-11T00:59:50.414Z,9.89
2018-11-11T01:02:22.464Z,9.88
2018-11-11T01:04:52.910Z,9.83
2018-11-11T01:07:23.641Z,9.73
2018-11-11T01:09:53.595Z,9.74
2018-11-11T01:12:24.637Z,9.76
2018-11-11T01:14:55.231Z,9.70
2018-11-11T01:17:25.539Z,9.74
2018-11-11T01:19:56.579Z,9.68
2018-11-11T01:22:26.621Z,9.69
2018-11-11T01:24:57.453Z,9.69
2018-11-11T01:27:28.597Z,9.76
2018-11-11T01:29:58.466Z,9.65
2018-11-11T01:32:29.656Z,9.60
2018-11-11T01:34:59.207Z,9.68
2018-11-11T01:37:30.367Z,9.73
2018-11-11T01:40:00.686Z,9.77
2018-11-11T01:42:30.843Z,9.70
2018-11-11T01:45:01.682Z,9.75
2018-11-11T01:47:32.351Z,9.72
2018-11-11T01:50:02.763Z,9.65
2018-11-11T01:52:32.493Z,9.62
2018-11-11T01:55:03.789Z,9.59
2018-11-11T01:57:40.694Z,9.56
2018-11-11T02:00:13.983Z,9.56
2018-11-11T02:02:46.488Z,9.58
2018-11-11T02:05:18.755Z,9.64
2018-11-11T02:07:50.446Z,9.59
2018-11-11T02:10:21.630Z,9.63
2018-11-11T02:12:52.345Z,9.62
2018-11-11T02:15:22.799Z,9.57
2018-11-11T02:17:52.734Z,9.56
2018-11-11T02:20:23.973Z,9.56
2018-11-11T02:22:54.282Z,9.53
2018-11-11T02:25:24.827Z,9.58
2018-11-11T02:27:55.601Z,9.58
2018-11-11T02:30:25.774Z,9.68
2018-11-11T02:32:56.809Z,9.56
2018-11-11T02:35:26.818Z,9.51
2018-11-11T02:37:58.029Z,9.50
2018-11-11T02:40:27.759Z,9.49
2018-11-11T02:42:59.055Z,9.50
2018-11-11T02:45:29.783Z,9.49
2018-11-11T02:48:00.524Z,9.48
2018-11-11T02:50:30.974Z,9.46
2018-11-11T02:53:02.113Z,9.48
2018-11-11T02:55:32.617Z,9.49
2018-11-11T02:58:03.081Z,9.48
2018-11-11T03:00:33.586Z,9.48
2018-11-11T03:03:04.061Z,9.43
2018-11-11T03:05:33.950Z,9.46
2018-11-11T03:08:04.910Z,9.44
2018-11-11T03:10:35.461Z,9.39
2018-11-11T03:13:06.353Z,9.35
2018-11-11T03:15:35.907Z,9.40
2018-11-11T03:18:07.164Z,9.37
2018-11-11T03:20:37.231Z,9.38
2018-11-11T03:23:07.716Z,9.38
2018-11-11T03:25:38.074Z,9.40
2018-11-11T03:28:09.074Z,9.36
2018-11-11T03:30:39.046Z,9.36
2018-11-11T03:33:10.018Z,9.31
2018-11-11T03:35:40.268Z,9.34
2018-11-11T03:38:11.027Z,9.35
2018-11-11T03:40:40.533Z,9.42
2018-11-11T03:43:11.978Z,9.36
2018-11-11T03:45:42.462Z,9.30
2018-11-11T03:48:13.142Z,9.34
2018-11-11T03:50:43.644Z,9.32
2018-11-11T03:53:14.450Z,9.37
2018-11-11T03:55:44.370Z,9.39
2018-11-11T03:58:15.387Z,9.42
2018-11-11T04:00:46.218Z,9.44
2018-11-11T04:03:16.936Z,9.41
2018-11-11T04:05:47.350Z,9.48
2018-11-11T04:08:18.160Z,9.44
2018-11-11T04:10:49.035Z,9.35
2018-11-11T04:13:19.607Z,9.43
2018-11-11T04:15:50.251Z,9.41
2018-11-11T04:18:21.214Z,9.32
2018-11-11T04:20:54.327Z,9.30
2018-11-11T04:23:26.004Z,9.33
2018-11-11T04:25:58.376Z,9.29
2018-11-11T04:28:30.486Z,9.35
2018-11-11T04:31:02.399Z,9.30
2018-11-11T04:33:32.518Z,9.23
2018-11-11T04:36:03.323Z,9.19
2018-11-11T04:38:34.398Z,9.20
2018-11-11T04:41:04.494Z,9.24
2018-11-11T04:43:34.414Z,9.21
2018-11-11T04:46:06.292Z,9.19
2018-11-11T04:48:45.059Z,9.21
2018-11-11T04:51:15.533Z,9.26
2018-11-11T04:53:45.482Z,9.24
2018-11-11T04:56:16.478Z,9.26
2018-11-11T04:58:46.496Z,9.27
2018-11-11T05:01:17.589Z,9.27
2018-11-11T05:03:47.567Z,9.25
2018-11-11T05:06:21.243Z,9.26
2018-11-11T05:08:51.630Z,9.31
2018-11-11T05:11:22.744Z,9.32
2018-11-11T05:13:52.698Z,9.30
2018-11-11T05:16:24.430Z,9.25
2018-11-11T05:18:54.644Z,9.22
2018-11-11T05:21:24.598Z,9.27
2018-11-11T05:23:56.311Z,9.24
2018-11-11T05:26:26.621Z,9.26
2018-11-11T05:28:57.443Z,9.24
2018-11-11T05:31:27.657Z,9.13
2018-11-11T05:33:58.570Z,9.06
2018-11-11T05:36:30.832Z,9.05
2018-11-11T05:39:02.772Z,9.14
2018-11-11T05:41:38.297Z,9.11
2018-11-11T05:44:13.960Z,9.06
2018-11-11T05:46:49.522Z,9.04
2018-11-11T05:49:25.076Z,9.03
2018-11-11T05:52:00.588Z,9.10
2018-11-11T05:54:36.127Z,9.10
2018-11-11T05:57:11.589Z,9.13
2018-11-11T05:59:47.125Z,9.08
2018-11-11T06:02:22.571Z,9.12
2018-11-11T06:04:57.949Z,9.08
2018-11-11T06:07:33.437Z,9.16
2018-11-11T06:10:10.472Z,9.18
2018-11-11T06:12:45.943Z,9.16
2018-11-11T06:15:21.316Z,9.12
2018-11-11T06:17:56.940Z,9.06
2018-11-11T06:20:32.427Z,9.06
2018-11-11T06:23:07.838Z,9.06
2018-11-11T06:25:43.397Z,9.08
2018-11-11T06:28:18.957Z,9.11
2018-11-11T06:30:54.321Z,9.18
2018-11-11T06:33:29.794Z,9.28
2018-11-11T06:36:05.489Z,9.21
2018-11-11T06:38:40.951Z,9.15
2018-11-11T06:41:16.569Z,9.17
2018-11-11T06:43:51.930Z,9.17
2018-11-11T06:46:27.515Z,9.18
2018-11-11T06:49:03.132Z,9.11
2018-11-11T06:51:38.668Z,9.12
2018-11-11T06:54:14.299Z,9.13
2018-11-11T06:56:49.677Z,9.19
2018-11-11T06:59:25.087Z,9.20
2018-11-11T07:02:00.645Z,9.24
2018-11-11T07:04:36.170Z,9.26
2018-11-11T07:07:11.665Z,9.36
2018-11-11T07:09:47.119Z,9.44
2018-11-11T07:12:22.827Z,9.42
2018-11-11T07:14:58.288Z,9.36
2018-11-11T07:17:33.711Z,9.35
2018-11-11T07:20:09.277Z,9.40
2018-11-11T07:22:44.967Z,9.40
2018-11-11T07:25:20.319Z,9.49
2018-11-11T07:27:55.875Z,9.49
2018-11-11T07:30:31.188Z,9.52
2018-11-11T07:33:06.844Z,9.56
2018-11-11T07:35:42.302Z,9.59
2018-11-11T07:38:17.781Z,9.63
2018-11-11T07:40:53.510Z,9.82
2018-11-11T07:43:29.021Z,9.77
2018-11-11T07:46:05.287Z,9.78
2018-11-11T07:48:41.150Z,9.75
2018-11-11T07:51:16.612Z,9.79
2018-11-11T07:53:52.163Z,9.83
2018-11-11T07:56:28.323Z,9.83
2018-11-11T07:59:04.280Z,9.91
2018-11-11T08:01:39.857Z,9.92
2018-11-11T08:04:15.554Z,9.95
2018-11-11T08:06:51.084Z,9.97
2018-11-11T08:09:26.722Z,9.95
2018-11-11T08:12:03.357Z,9.97
2018-11-11T08:14:38.924Z,10.03
2018-11-11T08:17:14.287Z,10.06
2018-11-11T08:19:49.639Z,10.13
2018-11-11T08:22:26.313Z,10.14
2018-11-11T08:25:01.746Z,10.15
2018-11-11T08:27:37.282Z,10.23
2018-11-11T08:30:12.943Z,10.29
2018-11-11T08:32:48.409Z,10.29
2018-11-11T08:35:24.052Z,10.29
2018-11-11T08:37:59.414Z,10.30
2018-11-11T08:40:34.885Z,10.33
2018-11-11T08:43:10.349Z,10.37
2018-11-11T08:45:45.803Z,10.41
2018-11-11T08:48:21.254Z,10.48
2018-11-11T08:50:56.743Z,10.59
2018-11-11T08:53:32.507Z,10.68
2018-11-11T08:56:07.978Z,10.63
2018-11-11T08:58:43.539Z,10.63
2018-11-11T09:01:19.050Z,10.66
2018-11-11T09:03:54.627Z,10.65
2018-11-11T09:06:30.165Z,10.70
2018-11-11T09:09:07.381Z,10.72
2018-11-11T09:11:42.978Z,10.72
2018-11-11T09:14:18.593Z,10.74
2018-11-11T09:16:54.145Z,10.87
2018-11-11T09:19:29.738Z,10.97
2018-11-11T09:22:05.690Z,10.95
2018-11-11T09:24:41.158Z,11.05
2018-11-11T09:27:16.707Z,11.05
2018-11-11T09:29:52.317Z,11.04
2018-11-11T09:32:27.806Z,10.93
2018-11-11T09:35:03.483Z,10.90
2018-11-11T09:37:39.344Z,10.93
2018-11-11T09:40:15.079Z,11.07
2018-11-11T09:42:50.703Z,11.21
2018-11-11T09:45:26.075Z,11.28
2018-11-11T09:48:01.882Z,11.31
2018-11-11T09:50:37.230Z,11.36
2018-11-11T09:53:12.800Z,11.45
2018-11-11T09:55:48.343Z,11.46
2018-11-11T09:58:23.838Z,11.66
2018-11-11T10:00:59.250Z,11.74
2018-11-11T10:03:38.453Z,11.87
2018-11-11T10:06:22.128Z,12.00
2018-11-11T10:09:03.747Z,12.07
2018-11-11T10:11:44.349Z,12.18
2018-11-11T10:25:06.472Z,12.32
2018-11-11T10:27:46.679Z,12.69
2018-11-11T10:30:27.089Z,12.75
2018-11-11T10:33:18.882Z,12.75
2018-11-11T10:36:06.498Z,12.91
2018-11-11T10:38:49.414Z,13.05
2018-11-11T10:41:30.081Z,13.10
2018-11-11T10:44:12.022Z,13.00
2018-11-11T10:47:52.031Z,13.00
2018-11-11T10:50:32.639Z,13.20
2018-11-11T10:53:08.431Z,13.28
2018-11-11T10:55:43.828Z,13.49
2018-11-11T10:58:19.380Z,13.63
2018-11-11T11:01:00.024Z,13.61
2018-11-11T11:03:36.933Z,13.62
2018-11-11T11:06:12.567Z,13.52
2018-11-11T11:08:53.057Z,13.43
2018-11-11T11:11:28.446Z,13.35
2018-11-11T11:14:03.861Z,13.25
2018-11-11T11:16:39.588Z,13.35
2018-11-11T11:19:15.276Z,13.35
2018-11-11T11:21:45.229Z,13.27
2018-11-11T11:24:16.111Z,13.27
2018-11-11T11:26:46.422Z,13.38
2018-11-11T11:29:16.195Z,13.53
2018-11-11T11:31:46.678Z,13.55
2018-11-11T11:34:17.589Z,13.52
2018-11-11T11:36:47.154Z,13.47
2018-11-11T11:39:17.343Z,13.39
2018-11-11T11:41:47.434Z,13.34
2018-11-11T11:44:17.382Z,13.46
2018-11-11T11:46:49.143Z,13.50
2018-11-11T11:49:21.611Z,13.37
2018-11-11T11:51:52.158Z,13.23
2018-11-11T11:54:22.472Z,13.26
2018-11-11T11:56:52.280Z,13.34
2018-11-11T11:59:23.145Z,13.31
2018-11-11T12:01:53.554Z,13.37
2018-11-11T12:04:23.719Z,13.30
2018-11-11T12:06:53.994Z,13.47
2018-11-11T12:09:24.448Z,13.60
2018-11-11T12:11:54.583Z,13.62
2018-11-11T12:14:24.321Z,13.55
2018-11-11T12:16:55.219Z,13.51
2018-11-11T12:19:25.283Z,13.47
2018-11-11T12:21:55.467Z,13.26
2018-11-11T12:24:25.558Z,13.29
2018-11-11T12:26:56.411Z,13.28
2018-11-11T12:29:26.708Z,13.30
2018-11-11T12:31:56.520Z,13.35
2018-11-11T12:34:27.071Z,13.17
2018-11-11T12:36:57.584Z,13.08
2018-11-11T12:39:27.787Z,13.13
2018-11-11T12:41:57.357Z,13.23
2018-11-11T12:44:28.717Z,13.17
2018-11-11T12:46:58.771Z,13.17
2018-11-11T12:49:28.795Z,13.18
2018-11-11T12:51:59.835Z,13.14
2018-11-11T12:54:29.545Z,13.09
2018-11-11T12:57:00.032Z,13.00
2018-11-11T12:59:30.222Z,13.05
2018-11-11T13:02:00.771Z,13.04
2018-11-11T13:04:30.963Z,12.92
2018-11-11T13:07:00.678Z,12.97
2018-11-11T13:09:33.002Z,12.94
2018-11-11T13:12:06.705Z,12.72
2018-11-11T13:14:39.120Z,12.77
2018-11-11T13:17:11.749Z,12.71
2018-11-11T13:19:42.798Z,12.62
2018-11-11T13:22:13.439Z,12.63
2018-11-11T13:24:43.047Z,12.60
2018-11-11T13:27:13.527Z,12.58
2018-11-11T13:29:46.355Z,12.51
2018-11-11T13:32:16.949Z,12.50
2018-11-11T13:34:47.085Z,12.51
2018-11-11T13:37:17.805Z,12.46
2018-11-11T13:39:47.835Z,12.48
2018-11-11T13:42:17.930Z,12.43
2018-11-11T13:44:51.568Z,12.40
2018-11-11T13:47:21.910Z,12.44
2018-11-11T13:49:52.661Z,12.39
2018-11-11T13:52:23.093Z,12.34
2018-11-11T13:54:53.391Z,12.25
2018-11-11T13:57:24.079Z,12.24
2018-11-11T13:59:56.654Z,12.20
2018-11-11T14:02:27.999Z,12.22
2018-11-11T14:04:58.781Z,12.21
2018-11-11T14:07:29.029Z,12.18
2018-11-11T14:10:01.686Z,12.15
2018-11-11T14:12:32.974Z,12.08
2018-11-11T14:15:04.191Z,12.05
2018-11-11T14:17:37.710Z,12.14
2018-11-11T14:20:11.673Z,12.01
2018-11-11T14:22:43.985Z,12.08
2018-11-11T14:25:18.694Z,11.92
2018-11-11T14:27:49.094Z,11.87
2018-11-11T14:30:22.505Z,11.88
2018-11-11T14:32:53.835Z,11.78
2018-11-11T14:35:26.091Z,11.78
2018-11-11T14:37:56.091Z,11.79
2018-11-11T14:40:28.558Z,11.67
2018-11-11T14:42:58.585Z,11.65
2018-11-11T14:45:33.971Z,11.56
2018-11-11T14:48:05.089Z,11.46
2018-11-11T14:50:38.370Z,11.38
2018-11-11T14:53:10.401Z,11.48
2018-11-11T14:55:41.210Z,11.40
2018-11-11T14:58:14.709Z,11.33
2018-11-11T15:00:47.379Z,11.23
2018-11-11T15:03:18.543Z,11.23
2018-11-11T15:05:48.719Z,11.27
2018-11-11T15:08:18.959Z,11.21
2018-11-11T15:10:48.915Z,11.06
2018-11-11T15:13:19.471Z,11.01
2018-11-11T15:15:49.246Z,10.91
2018-11-11T15:18:20.492Z,10.91
2018-11-11T15:20:50.350Z,10.93
2018-11-11T15:23:20.620Z,10.89
2018-11-11T15:28:27.517Z,10.78
2018-11-11T15:30:57.907Z,10.72
2018-11-11T15:33:27.512Z,10.69
2018-11-11T15:35:58.388Z,10.63
2018-11-11T15:38:29.485Z,10.82
2018-11-11T15:41:01.651Z,10.71
2018-11-11T15:43:32.425Z,10.66
2018-11-11T15:51:51.541Z,10.28
2018-11-11T15:54:22.643Z,10.29
2018-11-11T15:59:21.043Z,9.95
2018-11-11T16:01:52.454Z,9.74
2018-11-11T16:04:23.576Z,9.67
2018-11-11T16:06:54.662Z,9.49
2018-11-11T16:09:26.687Z,9.41
2018-11-11T16:11:58.024Z,9.36
2018-11-11T16:14:27.885Z,9.22
2018-11-11T16:16:58.282Z,9.11
2018-11-11T16:19:29.411Z,8.97
2018-11-11T16:21:59.376Z,8.90
2018-11-11T16:24:30.247Z,8.80
2018-11-11T16:27:00.443Z,8.69
2018-11-11T16:29:31.122Z,8.58
2018-11-11T16:32:01.501Z,8.50
2018-11-11T16:34:31.146Z,8.45
2018-11-11T16:37:01.012Z,8.39
2018-11-11T16:39:37.807Z,8.34
2018-11-11T16:42:09.768Z,8.25
2018-11-11T16:44:42.480Z,8.21
2018-11-11T16:47:12.751Z,8.13
2018-11-11T16:49:43.125Z,8.12
2018-11-11T16:52:16.163Z,8.07
2018-11-11T16:54:46.995Z,8.07
2018-11-11T16:57:16.760Z,8.03
2018-11-11T16:59:47.495Z,7.96
2018-11-11T17:02:18.474Z,7.92
2018-11-11T17:10:13.051Z,8.00
2018-11-11T17:12:44.354Z,7.96
2018-11-11T17:15:20.103Z,7.91
2018-11-11T17:17:50.544Z,7.84
2018-11-11T17:20:24.520Z,7.79
2018-11-11T17:23:02.808Z,7.75
2018-11-11T17:25:35.694Z,7.71
2018-11-11T17:28:06.608Z,7.65
2018-11-11T17:30:43.214Z,7.63
2018-11-11T17:33:13.423Z,7.56
2018-11-11T17:35:44.691Z,7.54
2018-11-11T17:38:14.772Z,7.57
2018-11-11T17:40:46.936Z,7.54
2018-11-11T17:43:17.683Z,7.48
2018-11-11T17:45:50.360Z,7.46
2018-11-11T17:48:20.984Z,7.42
2018-11-11T17:50:51.535Z,7.39
2018-11-11T17:53:22.509Z,7.36
2018-11-11T17:55:56.687Z,7.35
2018-11-11T17:58:28.189Z,7.34
2018-11-11T18:00:58.471Z,7.34
2018-11-11T18:03:29.912Z,7.30
2018-11-11T18:06:00.220Z,7.27
2018-11-11T18:08:30.331Z,7.24
2018-11-11T18:11:00.834Z,7.22
2018-11-11T18:13:30.955Z,7.20
2018-11-11T18:16:01.318Z,7.18
2018-11-11T18:18:31.171Z,7.20
2018-11-11T18:21:01.968Z,7.19
2018-11-11T18:23:32.265Z,7.19
2018-11-11T18:26:09.520Z,7.20
2018-11-11T18:28:42.264Z,7.15
2018-11-11T18:31:13.575Z,7.17
2018-11-11T18:33:44.118Z,7.14
2018-11-11T18:36:14.602Z,7.13
2018-11-11T18:38:44.846Z,7.15
2018-11-11T18:41:15.603Z,7.16
2018-11-11T18:43:51.371Z,7.07
2018-11-11T18:46:21.333Z,7.03
2018-11-11T18:48:52.037Z,7.00
2018-11-11T18:51:22.323Z,6.93
2018-11-11T18:53:52.457Z,6.87
2018-11-11T18:56:22.907Z,6.88
2018-11-11T18:58:53.785Z,6.84
2018-11-11T19:01:23.573Z,6.82
2018-11-11T19:03:53.354Z,6.75
2018-11-11T19:06:24.473Z,6.77
2018-11-11T19:08:57.564Z,6.75
2018-11-11T19:11:28.881Z,6.76
2018-11-11T19:13:58.959Z,6.74
2018-11-11T19:16:29.818Z,6.70
2018-11-11T19:19:07.569Z,6.66
2018-11-11T19:21:37.893Z,6.60
2018-11-11T19:24:10.923Z,6.53
2018-11-11T19:26:44.796Z,6.50
2018-11-11T19:29:17.136Z,6.53
2018-11-11T19:31:49.558Z,6.52
2018-11-11T19:34:21.471Z,6.51
2018-11-11T19:39:48.204Z,6.51
2018-11-11T19:42:23.935Z,6.46
2018-11-11T19:44:58.902Z,6.45
2018-11-11T19:47:31.146Z,6.48
2018-11-11T19:50:02.275Z,6.46
2018-11-11T19:52:32.927Z,6.44
2018-11-11T19:55:04.530Z,6.42
2018-11-11T19:57:35.212Z,6.42
2018-11-11T20:00:06.158Z,6.39
2018-11-11T20:02:36.036Z,6.39
2018-11-11T20:05:10.248Z,6.40
2018-11-11T20:07:43.077Z,6.45
2018-11-11T20:10:14.908Z,6.45
2018-11-11T20:12:46.251Z,6.48
2018-11-11T20:15:18.374Z,6.58
2018-11-11T20:17:53.860Z,6.67
2018-11-11T20:20:25.208Z,6.65
2018-11-11T20:22:54.812Z,6.60
2018-11-11T20:25:24.955Z,6.62
2018-11-11T20:27:59.126Z,6.63
2018-11-11T20:30:32.653Z,6.63
2018-11-11T20:33:05.395Z,6.64
2018-11-11T20:35:36.225Z,6.63
2018-11-11T20:38:12.546Z,6.63
2018-11-11T20:40:43.127Z,6.59
2018-11-11T20:43:14.416Z,6.58
2018-11-11T20:45:44.306Z,6.54
2018-11-11T20:48:14.955Z,6.50
2018-11-11T20:50:45.226Z,6.52
2018-11-11T20:53:15.673Z,6.51
2018-11-11T20:55:47.120Z,6.48
2018-11-11T20:58:16.951Z,6.47
2018-11-11T21:00:47.239Z,6.47
2018-11-11T21:03:17.673Z,6.43
2018-11-11T21:05:48.508Z,6.39
2018-11-11T21:08:19.519Z,6.37
2018-11-11T21:10:52.705Z,6.33
2018-11-11T21:13:24.036Z,6.26
2018-11-11T21:15:56.427Z,6.27
2018-11-11T21:18:26.989Z,6.26
2018-11-11T21:20:57.153Z,6.24
2018-11-11T21:23:28.687Z,6.22
2018-11-11T21:25:58.690Z,6.20
2018-11-11T21:28:31.231Z,6.20
2018-11-11T21:31:03.269Z,6.27
2018-11-11T21:33:34.555Z,6.23
2018-11-11T21:36:04.327Z,6.20
2018-11-11T21:38:38.156Z,6.19
2018-11-11T21:41:10.132Z,6.22
2018-11-11T21:43:41.964Z,6.20
2018-11-11T21:46:12.547Z,6.14
2018-11-11T21:48:42.900Z,6.21
2018-11-11T21:51:13.353Z,6.27
2018-11-11T21:53:43.810Z,6.33
2018-11-11T21:56:14.129Z,6.31
2018-11-11T21:58:44.613Z,6.24
2018-11-11T22:01:14.808Z,6.16
2018-11-11T22:03:45.397Z,6.15
2018-11-11T22:06:15.617Z,6.07
2018-11-11T22:08:45.970Z,5.98
2018-11-11T22:11:16.465Z,5.91
2018-11-11T22:13:47.031Z,5.85
2018-11-11T22:16:19.396Z,5.85
2018-11-11T22:18:51.800Z,5.86
2018-11-11T22:21:24.594Z,5.84
2018-11-11T22:23:55.265Z,5.79
2018-11-11T22:26:25.457Z,5.72
2018-11-11T22:28:55.909Z,5.76
2018-11-11T22:31:26.372Z,5.73
2018-11-11T22:33:57.970Z,5.69
2018-11-11T22:36:30.805Z,5.67
2018-11-11T22:39:10.811Z,5.66
2018-11-11T22:41:41.443Z,5.62
2018-11-11T22:44:11.548Z,5.63
2018-11-11T22:46:42.452Z,5.61
2018-11-11T22:49:12.610Z,5.66
2018-11-11T22:51:43.346Z,5.67
2018-11-11T22:54:14.026Z,5.67
2018-11-11T22:56:49.720Z,5.67
2018-11-11T22:59:20.628Z,5.65
2018-11-11T23:01:52.370Z,5.64
2018-11-11T23:04:22.996Z,5.61
2018-11-11T23:06:54.627Z,5.55
2018-11-11T23:09:27.354Z,5.54
2018-11-11T23:12:00.582Z,5.53
2018-11-11T23:14:30.931Z,5.53
2018-11-11T23:17:00.546Z,5.57
2018-11-11T23:19:30.487Z,5.60
2018-11-11T23:22:01.364Z,5.55
2018-11-11T23:24:31.972Z,5.55
2018-11-11T23:27:02.384Z,5.55
2018-11-11T23:29:32.667Z,5.55
2018-11-11T23:32:03.101Z,5.56
2018-11-11T23:34:33.384Z,5.56
2018-11-11T23:37:03.959Z,5.55
2018-11-11T23:39:34.432Z,5.54
2018-11-11T23:42:05.078Z,5.64
2018-11-11T23:44:35.925Z,5.69
2018-11-11T23:47:06.181Z,5.66
2018-11-11T23:49:36.475Z,5.71
2018-11-11T23:52:07.174Z,5.65
2018-11-11T23:54:37.667Z,5.64
2018-11-11T23:57:11.281Z,5.56
2018-11-11T23:59:41.756Z,5.55
